Terminal Aerodrome Forecast
Issued by NWS Amarillo, TX

Home | Current Version | Previous Version | Text Only | Print | Product List | Glossary On
Versions: 1 2 3 4 5 6 7 8 9 10 11 12 13 14
000
FTUS44 KAMA 040500
TAFDHT
TAF
KDHT 040520Z 0406/0506 15010KT P6SM VCTS SCT030CB BKN100
      TEMPO 0406/0410 3SM +TSRA BKN020CB
     FM041200 17008KT P6SM SCT120 BKN300
     FM041600 19009KT P6SM SCT050
     FM050100 17008KT P6SM SCT120=

USA.gov is the U.S. government's official web portal to all federal, state and local government web resources and services.